createdAt,value
2022-10-23T00:00:29.282Z,92.5
2022-10-23T00:01:29.356Z,92.4
2022-10-23T00:02:29.352Z,92.2
2022-10-23T00:03:29.163Z,92.3
2022-10-23T00:04:29.174Z,92.2
2022-10-23T00:05:29.181Z,92.3
2022-10-23T00:06:29.187Z,92.2
2022-10-23T00:08:29.217Z,92.2
2022-10-23T00:09:29.233Z,92.3
2022-10-23T00:10:29.234Z,92.3
2022-10-23T00:11:29.254Z,92.3
2022-10-23T00:12:29.260Z,92.4
2022-10-23T00:13:29.276Z,92.3
2022-10-23T00:14:29.295Z,92.2
2022-10-23T00:15:29.310Z,92.1
2022-10-23T00:16:29.318Z,92.1
2022-10-23T00:17:29.332Z,92.1
2022-10-23T00:18:29.353Z,92.3
2022-10-23T00:19:29.379Z,92.3
2022-10-23T00:20:29.399Z,92.3
2022-10-23T00:21:29.408Z,92.4
2022-10-23T00:22:29.421Z,92.3
2022-10-23T00:23:29.429Z,92.4
2022-10-23T00:24:29.456Z,92.4
2022-10-23T00:25:29.457Z,92.3
2022-10-23T00:26:29.476Z,92.1
2022-10-23T00:27:29.494Z,92.2
2022-10-23T00:28:29.496Z,92.3
2022-10-23T00:29:29.503Z,92.3
2022-10-23T00:30:29.515Z,92.3
2022-10-23T00:31:29.546Z,92.2
2022-10-23T00:32:29.684Z,92.3
2022-10-23T00:33:29.547Z,92.3
2022-10-23T00:34:29.553Z,92.2
2022-10-23T00:35:29.559Z,92.1
2022-10-23T00:36:29.577Z,92.4
2022-10-23T00:37:29.602Z,92.1
2022-10-23T00:38:29.628Z,92.1
2022-10-23T00:39:29.640Z,92.1
2022-10-23T00:40:29.645Z,92.2
2022-10-23T00:41:29.667Z,92.2
2022-10-23T00:42:29.677Z,92.3
2022-10-23T00:43:29.687Z,92.3
2022-10-23T00:44:29.695Z,92.2
2022-10-23T00:45:29.717Z,92.2
2022-10-23T01:03:30.242Z,92.5
2022-10-23T01:04:29.897Z,92.5
2022-10-23T01:05:29.888Z,92.5
2022-10-23T01:06:29.921Z,92.4
2022-10-23T01:07:29.910Z,92.4
2022-10-23T01:08:29.913Z,92.3
2022-10-23T01:09:29.925Z,92.2
2022-10-23T01:10:29.925Z,92.3
2022-10-23T01:11:29.930Z,92.2
2022-10-23T01:12:29.934Z,92.1
2022-10-23T01:13:29.952Z,92.1
2022-10-23T01:14:29.954Z,92.2
2022-10-23T01:15:29.957Z,92.2
2022-10-23T01:16:29.963Z,92.2
2022-10-23T01:17:30.007Z,92.2
2022-10-23T01:18:29.990Z,92.2
2022-10-23T01:19:29.986Z,92.2
2022-10-23T01:20:30.003Z,92.2
2022-10-23T01:21:30.014Z,92.2
2022-10-23T01:22:30.027Z,92.2
2022-10-23T01:23:30.035Z,92.3
2022-10-23T01:24:30.068Z,92.4
2022-10-23T01:25:30.061Z,92.4
2022-10-23T01:26:30.065Z,92.4
2022-10-23T01:27:30.090Z,92.4
2022-10-23T01:28:30.088Z,92.5
2022-10-23T01:29:30.088Z,92.4
2022-10-23T01:30:30.315Z,92.5
2022-10-23T01:31:30.117Z,92.5
2022-10-23T01:32:30.094Z,92.6
2022-10-23T01:33:30.091Z,92.6
2022-10-23T01:34:30.108Z,92.6
2022-10-23T01:35:30.121Z,92.6
2022-10-23T01:36:30.103Z,92.5
2022-10-23T01:37:30.113Z,92.4
2022-10-23T01:38:30.123Z,92.4
2022-10-23T01:39:30.130Z,92.4
2022-10-23T01:40:30.137Z,92.3
2022-10-23T01:41:30.162Z,92.3
2022-10-23T01:42:30.147Z,92.3
2022-10-23T01:43:30.163Z,92.4
2022-10-23T01:44:30.160Z,92.4
2022-10-23T01:45:30.163Z,92.4
2022-10-23T01:46:30.174Z,92.4
2022-10-23T01:47:30.186Z,92.5
2022-10-23T01:48:30.195Z,92.5
2022-10-23T01:49:30.189Z,92.5
2022-10-23T01:50:30.197Z,92.6
2022-10-23T01:51:30.208Z,92.5
2022-10-23T01:52:30.221Z,92.5
2022-10-23T01:53:30.215Z,92.5
2022-10-23T01:54:30.225Z,92.4
2022-10-23T01:55:30.448Z,92.4
2022-10-23T01:56:30.231Z,92.5
2022-10-23T01:57:30.235Z,92.5
2022-10-23T01:58:30.249Z,92.6
2022-10-23T01:59:30.250Z,92.5
2022-10-23T02:00:30.253Z,92.5
2022-10-23T02:01:30.637Z,92.4
2022-10-23T02:02:30.462Z,92.5
2022-10-23T02:03:30.273Z,92.5
2022-10-23T02:04:30.281Z,92.4
2022-10-23T02:05:30.285Z,92.4
2022-10-23T02:06:30.293Z,92.4
2022-10-23T02:07:30.297Z,92.4
2022-10-23T02:08:30.301Z,92.5
2022-10-23T02:09:30.312Z,92.6
2022-10-23T02:10:30.316Z,92.6
2022-10-23T02:11:30.324Z,92.7
2022-10-23T02:12:30.338Z,92.6
2022-10-23T02:13:30.337Z,92.6
2022-10-23T02:14:30.347Z,92.6
2022-10-23T02:15:30.345Z,92.6
2022-10-23T02:16:30.355Z,92.6
2022-10-23T02:17:30.361Z,92.6
2022-10-23T02:18:30.369Z,92.5
2022-10-23T02:19:30.381Z,92.5
2022-10-23T02:20:30.502Z,92.5
2022-10-23T02:21:30.413Z,92.5
2022-10-23T02:22:30.395Z,92.4
2022-10-23T02:23:30.394Z,92.4
2022-10-23T02:24:30.405Z,92.3
2022-10-23T02:25:30.405Z,92.4
2022-10-23T02:26:30.414Z,92.4
2022-10-23T02:27:30.421Z,92.4
2022-10-23T02:28:30.422Z,92.4
2022-10-23T02:29:30.430Z,92.4
2022-10-23T02:30:30.442Z,92.4
2022-10-23T02:31:30.444Z,92.5
2022-10-23T02:32:30.452Z,92.4
2022-10-23T02:33:30.454Z,92.4
2022-10-23T02:34:30.459Z,92.5
2022-10-23T02:35:30.471Z,92.5
2022-10-23T02:36:30.470Z,92.6
2022-10-23T02:37:30.481Z,92.5
2022-10-23T02:38:30.484Z,92.5
2022-10-23T02:39:30.499Z,92.5
2022-10-23T02:40:30.495Z,92.6
2022-10-23T02:41:30.502Z,92.6
2022-10-23T02:42:30.507Z,92.6
2022-10-23T02:43:30.518Z,92.5
2022-10-23T02:44:30.523Z,92.6
2022-10-23T02:45:30.824Z,92.6
2022-10-23T02:46:30.545Z,92.6
2022-10-23T02:47:30.557Z,92.5
2022-10-23T02:48:30.559Z,92.4
2022-10-23T02:49:30.679Z,92.4
2022-10-23T02:50:30.576Z,92.4
2022-10-23T02:51:30.584Z,92.4
2022-10-23T02:52:30.587Z,92.4
2022-10-23T02:53:30.604Z,92.3
2022-10-23T02:54:30.613Z,92.2
2022-10-23T02:55:30.618Z,92.2
2022-10-23T02:56:36.721Z,92.2
2022-10-23T02:57:30.632Z,92.4
2022-10-23T02:58:30.635Z,92.3
2022-10-23T02:59:30.648Z,92.3
2022-10-23T03:00:30.650Z,92.3
2022-10-23T03:01:30.988Z,92.3
2022-10-23T03:03:30.674Z,92.3
2022-10-23T03:04:30.680Z,92.2
2022-10-23T03:05:30.707Z,92.1
2022-10-23T03:06:30.699Z,92.2
2022-10-23T03:07:30.716Z,92.1
2022-10-23T03:08:30.722Z,92.0
2022-10-23T03:09:30.731Z,92.0
2022-10-23T03:10:30.743Z,91.9
2022-10-23T03:11:30.744Z,92.0
2022-10-23T03:12:30.745Z,92.0
2022-10-23T03:13:30.765Z,92.1
2022-10-23T03:14:30.762Z,92.2
2022-10-23T03:15:30.787Z,92.1
2022-10-23T03:16:30.783Z,92.0
2022-10-23T03:17:30.784Z,92.1
2022-10-23T03:18:30.790Z,92.0
2022-10-23T03:19:30.808Z,91.9
2022-10-23T03:20:30.811Z,91.9
2022-10-23T03:21:30.826Z,91.9
2022-10-23T03:22:30.815Z,91.9
2022-10-23T03:23:30.823Z,92.0
2022-10-23T03:24:30.827Z,92.0
2022-10-23T03:25:30.831Z,91.9
2022-10-23T03:26:30.837Z,91.8
2022-10-23T03:27:30.855Z,91.7
2022-10-23T03:28:30.850Z,91.7
2022-10-23T03:29:30.865Z,91.8
2022-10-23T03:30:30.862Z,91.7
2022-10-23T03:31:30.866Z,91.6
2022-10-23T03:32:30.870Z,91.6
2022-10-23T03:33:30.878Z,91.7
2022-10-23T03:34:30.885Z,91.7
2022-10-23T03:35:30.892Z,91.8
2022-10-23T03:36:30.898Z,91.8
2022-10-23T03:37:30.910Z,91.8
2022-10-23T03:38:30.920Z,91.8
2022-10-23T03:39:30.926Z,91.8
2022-10-23T03:40:30.936Z,91.7
2022-10-23T03:41:30.933Z,91.7
2022-10-23T03:42:30.942Z,91.7
2022-10-23T03:43:30.950Z,91.7
2022-10-23T03:44:30.953Z,91.7
2022-10-23T03:45:30.965Z,91.7
2022-10-23T03:46:30.965Z,91.8
2022-10-23T03:47:30.969Z,91.7
2022-10-23T03:48:30.980Z,91.7
2022-10-23T03:49:30.992Z,91.6
2022-10-23T03:50:30.987Z,91.6
2022-10-23T03:51:30.998Z,91.6
2022-10-23T03:52:31.012Z,91.6
2022-10-23T03:53:31.013Z,91.6
2022-10-23T03:54:31.038Z,91.5
2022-10-23T03:55:31.042Z,91.5
2022-10-23T03:56:31.034Z,91.4
2022-10-23T03:57:31.045Z,91.4
2022-10-23T03:58:31.054Z,91.3
2022-10-23T03:59:31.057Z,91.3
2022-10-23T04:00:31.275Z,91.3
2022-10-23T04:01:31.503Z,91.3
2022-10-23T04:02:31.303Z,91.3
2022-10-23T04:03:31.076Z,91.3
2022-10-23T04:04:31.100Z,91.3
2022-10-23T04:05:31.086Z,91.2
2022-10-23T04:06:31.254Z,91.2
2022-10-23T04:07:31.101Z,91.3
2022-10-23T04:08:31.110Z,91.2
2022-10-23T04:09:31.123Z,91.4
2022-10-23T04:10:31.133Z,91.4
2022-10-23T04:11:31.135Z,91.5
2022-10-23T04:12:31.141Z,91.6
2022-10-23T04:13:31.144Z,91.5
2022-10-23T04:14:31.146Z,91.6
2022-10-23T04:15:31.152Z,91.7
2022-10-23T04:16:31.162Z,91.7
2022-10-23T04:17:31.178Z,91.7
2022-10-23T04:18:31.179Z,91.7
2022-10-23T04:19:31.181Z,91.8
2022-10-23T04:20:31.195Z,91.7
2022-10-23T04:21:31.195Z,91.6
2022-10-23T04:22:31.203Z,91.5
2022-10-23T04:23:31.204Z,91.6
2022-10-23T04:24:31.222Z,91.5
2022-10-23T04:25:31.223Z,91.7
2022-10-23T04:26:31.281Z,91.6
2022-10-23T04:27:31.236Z,91.5
2022-10-23T04:28:31.244Z,91.5
2022-10-23T04:29:31.249Z,91.6
2022-10-23T04:30:31.256Z,91.6
2022-10-23T04:31:31.259Z,91.7
2022-10-23T04:32:31.266Z,91.7
2022-10-23T04:33:31.280Z,91.6
2022-10-23T04:34:31.276Z,91.5
2022-10-23T04:35:31.290Z,91.4
2022-10-23T04:36:31.294Z,91.3
2022-10-23T04:37:31.749Z,91.4
2022-10-23T04:38:31.302Z,91.5
2022-10-23T04:39:31.308Z,91.6
2022-10-23T04:40:31.321Z,91.8
2022-10-23T04:41:31.326Z,91.7
2022-10-23T04:42:31.361Z,91.7
2022-10-23T04:43:31.335Z,91.7
2022-10-23T04:44:31.346Z,91.6
2022-10-23T04:45:31.352Z,91.6
2022-10-23T04:46:31.360Z,91.6
2022-10-23T04:47:31.362Z,91.6
2022-10-23T04:48:31.367Z,91.5
2022-10-23T04:49:31.370Z,91.7
2022-10-23T04:50:31.372Z,91.6
2022-10-23T04:51:31.388Z,91.6
2022-10-23T04:52:31.394Z,91.6
2022-10-23T04:53:31.397Z,91.6
2022-10-23T04:54:31.403Z,91.6
2022-10-23T04:55:31.411Z,91.7
2022-10-23T04:56:31.419Z,91.8
2022-10-23T04:57:31.418Z,91.7
2022-10-23T04:58:31.432Z,91.7
2022-10-23T04:59:31.451Z,91.8
2022-10-23T05:00:31.664Z,91.7
2022-10-23T05:01:31.815Z,91.7
2022-10-23T05:02:31.465Z,91.6
2022-10-23T05:03:31.468Z,91.7
2022-10-23T05:04:31.475Z,91.8
2022-10-23T05:05:31.486Z,91.7
2022-10-23T05:06:31.483Z,91.7
2022-10-23T05:07:31.499Z,91.7
2022-10-23T05:08:31.529Z,91.7
2022-10-23T05:09:31.509Z,91.6
2022-10-23T05:10:31.519Z,91.6
2022-10-23T05:11:31.521Z,91.6
2022-10-23T05:12:31.548Z,91.6
2022-10-23T05:13:31.547Z,91.7
2022-10-23T05:14:31.547Z,91.8
2022-10-23T05:15:31.887Z,91.8
2022-10-23T05:16:31.555Z,91.7
2022-10-23T05:17:31.577Z,91.7
2022-10-23T05:18:31.578Z,91.7
2022-10-23T05:19:31.582Z,91.7
2022-10-23T05:20:31.582Z,91.7
2022-10-23T05:21:31.608Z,91.7
2022-10-23T05:22:31.598Z,91.7
2022-10-23T05:23:31.599Z,91.8
2022-10-23T05:24:31.614Z,91.8
2022-10-23T05:25:31.623Z,91.8
2022-10-23T05:26:31.620Z,91.8
2022-10-23T05:27:31.659Z,91.9
2022-10-23T05:28:31.655Z,91.8
2022-10-23T05:29:31.641Z,91.8
2022-10-23T05:30:31.659Z,92.0
2022-10-23T05:31:31.647Z,91.9
2022-10-23T05:32:31.729Z,91.9
2022-10-23T05:33:31.651Z,91.9
2022-10-23T05:34:31.664Z,92.0
2022-10-23T05:35:31.662Z,91.9
2022-10-23T05:36:31.694Z,91.9
2022-10-23T05:37:31.685Z,92.0
2022-10-23T05:38:31.688Z,92.0
2022-10-23T05:39:31.696Z,91.9
2022-10-23T05:40:31.883Z,91.9
2022-10-23T05:41:31.703Z,91.9
2022-10-23T05:42:31.713Z,91.9
2022-10-23T05:43:31.732Z,92.0
2022-10-23T05:44:31.725Z,91.9
2022-10-23T05:45:31.731Z,91.9
2022-10-23T05:46:31.739Z,92.0
2022-10-23T05:47:31.742Z,91.9
2022-10-23T05:48:35.805Z,91.9
2022-10-23T05:49:31.769Z,91.9
2022-10-23T05:50:31.773Z,91.9
2022-10-23T05:51:31.777Z,91.9
2022-10-23T05:52:31.789Z,91.9
2022-10-23T05:53:31.800Z,91.9
2022-10-23T05:54:31.806Z,91.9
2022-10-23T05:55:31.811Z,91.9
2022-10-23T05:56:31.826Z,91.9
2022-10-23T05:57:31.823Z,91.9
2022-10-23T05:58:31.843Z,91.9
2022-10-23T05:59:31.840Z,91.8
2022-10-23T06:00:31.854Z,91.9
2022-10-23T06:01:32.309Z,91.9
2022-10-23T06:02:32.095Z,91.8
2022-10-23T06:03:31.881Z,91.9
2022-10-23T06:04:31.885Z,91.8
2022-10-23T06:05:32.074Z,91.9
2022-10-23T06:06:31.886Z,91.9
2022-10-23T06:07:36.194Z,91.9
2022-10-23T06:08:31.900Z,91.9
2022-10-23T06:09:31.914Z,91.9
2022-10-23T06:10:31.923Z,91.8
2022-10-23T06:11:31.928Z,91.8
2022-10-23T06:12:31.936Z,91.8
2022-10-23T06:13:31.931Z,91.8
2022-10-23T06:14:31.941Z,91.7
2022-10-23T06:15:31.946Z,91.7
2022-10-23T06:16:31.957Z,91.7
2022-10-23T06:17:31.963Z,91.7
2022-10-23T06:18:31.971Z,91.7
2022-10-23T06:19:31.975Z,91.7
2022-10-23T06:20:32.021Z,91.7
2022-10-23T06:21:31.987Z,91.7
2022-10-23T06:22:32.009Z,91.6
2022-10-23T06:23:32.019Z,91.6
2022-10-23T06:24:32.017Z,91.6
2022-10-23T06:25:32.027Z,91.6
2022-10-23T06:26:32.037Z,91.6
2022-10-23T06:27:32.036Z,91.5
2022-10-23T06:28:32.048Z,91.5
2022-10-23T06:29:32.063Z,91.5
2022-10-23T06:30:32.333Z,91.5
2022-10-23T06:31:32.069Z,91.4
2022-10-23T06:32:32.075Z,91.4
2022-10-23T06:33:32.089Z,91.4
2022-10-23T06:34:32.100Z,91.4
2022-10-23T06:35:32.098Z,91.4
2022-10-23T06:36:32.109Z,91.3
2022-10-23T06:37:32.112Z,91.3
2022-10-23T06:38:32.115Z,91.2
2022-10-23T06:39:32.595Z,91.3
2022-10-23T06:40:32.173Z,91.3
2022-10-23T06:41:32.149Z,91.2
2022-10-23T06:42:32.148Z,91.2
2022-10-23T06:43:32.162Z,91.2
2022-10-23T06:44:32.162Z,91.2
2022-10-23T06:45:32.180Z,91.2
2022-10-23T06:46:32.192Z,91.2
2022-10-23T06:47:32.195Z,91.2
2022-10-23T06:48:32.198Z,91.1
2022-10-23T06:49:32.214Z,91.2
2022-10-23T06:50:32.219Z,91.2
2022-10-23T06:51:32.228Z,91.1
2022-10-23T06:52:47.937Z,91.1
2022-10-23T06:53:32.241Z,91.1
2022-10-23T06:54:32.248Z,91.1
2022-10-23T06:55:32.516Z,91.0
2022-10-23T06:56:32.262Z,91.0
2022-10-23T06:57:32.277Z,91.0
2022-10-23T06:58:32.285Z,91.1
2022-10-23T06:59:32.300Z,91.1
2022-10-23T07:00:32.647Z,91.1
2022-10-23T07:01:33.018Z,91.1
2022-10-23T07:02:32.322Z,91.1
2022-10-23T07:03:32.331Z,91.1
2022-10-23T07:04:32.335Z,91.0
2022-10-23T07:05:32.342Z,91.0
2022-10-23T07:06:32.355Z,90.9
2022-10-23T07:07:32.365Z,91.0
2022-10-23T07:08:32.361Z,90.9
2022-10-23T07:09:32.378Z,90.9
2022-10-23T07:10:32.377Z,90.8
2022-10-23T07:11:32.390Z,90.8
2022-10-23T07:12:32.390Z,90.8
2022-10-23T07:13:32.398Z,90.8
2022-10-23T07:14:32.412Z,90.8
2022-10-23T07:15:32.418Z,90.8
2022-10-23T07:16:32.422Z,90.7
2022-10-23T07:17:32.429Z,90.7
2022-10-23T07:18:32.495Z,90.7
2022-10-23T07:19:32.449Z,90.7
2022-10-23T07:20:32.452Z,90.6
2022-10-23T07:21:32.456Z,90.7
2022-10-23T07:22:32.461Z,90.6
2022-10-23T07:23:32.470Z,90.7
2022-10-23T07:24:32.480Z,90.6
2022-10-23T07:25:32.492Z,90.6
2022-10-23T07:26:32.496Z,90.7
2022-10-23T07:27:32.512Z,90.7
2022-10-23T07:28:32.504Z,90.6
2022-10-23T07:29:32.525Z,90.7
2022-10-23T07:30:32.520Z,90.7
2022-10-23T07:31:32.532Z,90.7
2022-10-23T07:32:32.532Z,90.7
2022-10-23T07:33:32.540Z,90.7
2022-10-23T07:34:32.547Z,90.7
2022-10-23T07:35:39.446Z,90.7
2022-10-23T07:36:32.563Z,90.7
2022-10-23T07:37:32.562Z,90.6
2022-10-23T07:38:32.572Z,90.6
2022-10-23T07:39:32.574Z,90.6
2022-10-23T07:40:32.589Z,90.6
2022-10-23T07:41:32.594Z,90.6
2022-10-23T07:42:32.606Z,90.6
2022-10-23T07:44:32.621Z,90.6
2022-10-23T07:45:32.625Z,90.5
2022-10-23T07:46:32.636Z,90.5
2022-10-23T07:47:32.640Z,90.5
2022-10-23T07:48:32.658Z,90.5
2022-10-23T07:49:32.652Z,90.6
2022-10-23T07:50:32.681Z,90.4
2022-10-23T07:51:32.675Z,90.4
2022-10-23T07:52:36.296Z,90.5
2022-10-23T07:53:32.689Z,90.4
2022-10-23T07:54:32.690Z,90.3
2022-10-23T07:55:32.702Z,90.4
2022-10-23T07:56:32.700Z,90.3
2022-10-23T07:57:32.712Z,90.3
2022-10-23T07:58:32.719Z,90.2
2022-10-23T07:59:38.284Z,90.3
2022-10-23T08:00:32.727Z,90.3
2022-10-23T08:01:33.361Z,90.4
2022-10-23T08:02:32.878Z,90.3
2022-10-23T08:03:32.755Z,90.4
2022-10-23T08:04:32.760Z,90.4
2022-10-23T08:05:32.769Z,90.4
2022-10-23T08:06:32.772Z,90.4
2022-10-23T08:07:32.789Z,90.3
2022-10-23T08:08:32.958Z,90.3
2022-10-23T08:09:32.800Z,90.3
2022-10-23T08:10:32.801Z,90.1
2022-10-23T08:11:32.810Z,90.2
2022-10-23T08:12:32.819Z,90.2
2022-10-23T08:13:32.832Z,90.2
2022-10-23T08:14:32.839Z,90.3
2022-10-23T08:15:32.842Z,90.3
2022-10-23T08:16:32.851Z,90.3
2022-10-23T08:17:32.852Z,90.3
2022-10-23T08:18:32.856Z,90.2
2022-10-23T08:19:32.868Z,90.3
2022-10-23T08:20:32.879Z,90.2
2022-10-23T08:21:32.891Z,90.2
2022-10-23T08:22:32.889Z,90.1
2022-10-23T08:23:32.902Z,90.2
2022-10-23T08:24:32.912Z,90.3
2022-10-23T08:26:32.916Z,90.1
2022-10-23T08:27:32.929Z,90.1
2022-10-23T08:28:32.933Z,90.2
2022-10-23T08:29:32.938Z,90.2
2022-10-23T08:30:32.957Z,90.3
2022-10-23T08:31:32.955Z,90.2
2022-10-23T08:32:32.966Z,90.3
2022-10-23T08:33:32.981Z,90.3
2022-10-23T08:34:32.982Z,90.2
2022-10-23T08:35:32.996Z,90.3
2022-10-23T08:36:33.005Z,90.2
2022-10-23T08:37:33.006Z,90.2
2022-10-23T08:38:33.014Z,89.8
2022-10-23T08:39:33.026Z,89.8
2022-10-23T08:40:33.042Z,89.9
2022-10-23T08:41:33.038Z,89.6
2022-10-23T08:42:33.052Z,89.9
2022-10-23T08:43:33.052Z,89.9
2022-10-23T08:44:33.060Z,89.9
2022-10-23T08:45:33.085Z,89.7
2022-10-23T08:46:33.081Z,90.0
2022-10-23T08:47:33.090Z,89.9
2022-10-23T08:48:33.114Z,89.7
2022-10-23T08:49:33.114Z,89.8
2022-10-23T08:50:33.118Z,89.0
2022-10-23T08:51:33.123Z,89.3
2022-10-23T08:52:33.127Z,89.6
2022-10-23T08:53:33.136Z,89.5
2022-10-23T08:54:33.138Z,88.9
2022-10-23T08:55:33.150Z,89.3
2022-10-23T08:56:33.148Z,88.9
2022-10-23T08:57:43.856Z,89.2
2022-10-23T08:58:33.185Z,88.6
2022-10-23T08:59:33.633Z,88.8
2022-10-23T09:00:33.186Z,88.9
2022-10-23T09:01:33.670Z,88.8
2022-10-23T09:02:33.200Z,88.7
2022-10-23T09:03:33.206Z,88.7
2022-10-23T09:04:33.212Z,88.6
2022-10-23T09:05:33.226Z,88.4
2022-10-23T09:06:33.232Z,87.2
2022-10-23T09:07:33.243Z,87.8
2022-10-23T09:08:33.250Z,88.0
2022-10-23T09:09:33.257Z,88.0
2022-10-23T09:10:33.260Z,88.1
2022-10-23T09:11:33.274Z,87.8
2022-10-23T09:12:33.279Z,87.7
2022-10-23T09:13:33.293Z,87.3
2022-10-23T09:14:33.321Z,87.5
2022-10-23T09:15:33.306Z,87.8
2022-10-23T09:16:33.319Z,87.8
2022-10-23T09:17:33.316Z,86.3
2022-10-23T09:18:33.328Z,87.6
2022-10-23T09:19:33.330Z,87.5
2022-10-23T09:20:33.336Z,87.9
2022-10-23T09:21:33.345Z,87.7
2022-10-23T09:22:33.355Z,87.6
2022-10-23T09:23:33.358Z,86.7
2022-10-23T09:24:33.378Z,86.9
2022-10-23T09:25:33.385Z,87.2
2022-10-23T09:26:33.388Z,87.1
2022-10-23T09:27:33.394Z,87.2
2022-10-23T09:28:33.404Z,86.1
2022-10-23T09:29:33.413Z,86.5
2022-10-23T09:30:33.424Z,86.3
2022-10-23T09:31:33.429Z,86.9
2022-10-23T09:32:33.438Z,86.5
2022-10-23T09:33:33.434Z,86.4
2022-10-23T09:34:33.454Z,86.4
2022-10-23T09:35:33.452Z,86.1
2022-10-23T09:36:33.471Z,85.7
2022-10-23T09:37:33.488Z,86.2
2022-10-23T09:38:33.490Z,85.4
2022-10-23T09:39:33.502Z,85.9
2022-10-23T09:40:33.506Z,84.3
2022-10-23T09:41:33.511Z,85.5
2022-10-23T09:42:33.517Z,85.8
2022-10-23T09:43:33.528Z,85.8
2022-10-23T09:44:33.545Z,85.5
2022-10-23T09:45:33.543Z,84.9
2022-10-23T09:46:33.583Z,83.7
2022-10-23T09:47:33.562Z,85.2
2022-10-23T09:48:33.576Z,84.6
2022-10-23T09:49:33.583Z,84.1
2022-10-23T09:50:33.598Z,84.8
2022-10-23T09:51:33.612Z,83.0
2022-10-23T09:52:33.612Z,83.5
2022-10-23T09:53:33.619Z,82.9
2022-10-23T09:54:33.627Z,83.4
2022-10-23T09:55:33.630Z,83.3
2022-10-23T09:56:33.642Z,82.8
2022-10-23T09:57:33.649Z,83.6
2022-10-23T09:58:33.659Z,83.9
2022-10-23T09:59:33.666Z,83.7
2022-10-23T10:00:33.677Z,82.4
2022-10-23T10:01:34.130Z,82.9
2022-10-23T10:02:33.694Z,81.8
2022-10-23T10:03:33.699Z,83.3
2022-10-23T10:04:33.706Z,82.3
2022-10-23T10:05:33.723Z,80.9
2022-10-23T10:06:34.060Z,81.8
2022-10-23T10:07:37.002Z,82.6
2022-10-23T10:08:33.754Z,81.7
2022-10-23T10:09:33.746Z,81.8
2022-10-23T10:10:33.745Z,81.7
2022-10-23T10:11:33.759Z,82.3
2022-10-23T10:12:33.768Z,82.4
2022-10-23T10:13:33.782Z,82.2
2022-10-23T10:19:51.469Z,80.2
2022-10-23T10:20:33.870Z,79.4
2022-10-23T10:21:33.882Z,80.2
2022-10-23T10:22:33.894Z,80.1
2022-10-23T10:23:33.893Z,79.5
2022-10-23T10:24:33.901Z,79.5
2022-10-23T10:25:33.920Z,79.6
2022-10-23T10:26:33.920Z,79.2
2022-10-23T10:27:33.932Z,79.4
2022-10-23T10:28:33.948Z,78.7
2022-10-23T10:29:33.954Z,78.5
2022-10-23T10:30:33.957Z,77.6
2022-10-23T10:31:33.964Z,77.8
2022-10-23T10:32:33.977Z,77.2
2022-10-23T10:33:33.978Z,76.5
2022-10-23T10:34:33.994Z,77.1
2022-10-23T10:35:34.018Z,76.4
2022-10-23T10:36:34.009Z,75.7
2022-10-23T10:37:34.015Z,76.7
2022-10-23T10:38:34.023Z,75.8
2022-10-23T10:39:34.040Z,76.5
2022-10-23T10:40:34.047Z,76.4
2022-10-23T10:41:34.048Z,75.4
2022-10-23T10:42:34.055Z,75.7
2022-10-23T10:43:34.058Z,75.5
2022-10-23T10:44:34.066Z,74.6
2022-10-23T10:45:34.077Z,73.7
2022-10-23T10:46:34.084Z,73.8
2022-10-23T10:47:34.092Z,73.7
2022-10-23T10:48:34.104Z,73.4
2022-10-23T10:49:34.109Z,73.2
2022-10-23T10:50:34.122Z,73.2
2022-10-23T10:51:34.135Z,72.6
2022-10-23T10:52:34.136Z,72.6
2022-10-23T10:53:34.145Z,72.0
2022-10-23T10:54:34.157Z,72.1
2022-10-23T10:55:34.162Z,71.9
2022-10-23T10:56:34.173Z,71.4
2022-10-23T10:57:34.177Z,71.3
2022-10-23T10:58:34.185Z,71.1
2022-10-23T10:59:34.201Z,70.8
2022-10-23T11:00:34.212Z,70.4
2022-10-23T11:01:34.666Z,70.0
2022-10-23T11:02:34.225Z,69.9
2022-10-23T11:03:40.410Z,70.0
2022-10-23T11:04:34.251Z,69.6
2022-10-23T11:05:34.258Z,69.5
2022-10-23T11:06:34.250Z,69.1
2022-10-23T11:07:34.277Z,69.3
2022-10-23T11:09:09.231Z,69.4
2022-10-23T11:09:34.268Z,69.4
2022-10-23T11:10:34.277Z,69.4
2022-10-23T11:11:34.293Z,69.4
2022-10-23T11:12:34.296Z,69.4
2022-10-23T11:13:34.314Z,69.4
2022-10-23T11:14:34.312Z,69.4
2022-10-23T11:15:34.331Z,69.3
2022-10-23T11:16:34.325Z,69.5
2022-10-23T11:17:34.346Z,69.7
2022-10-23T11:18:34.377Z,69.4
2022-10-23T11:19:34.357Z,69.5
2022-10-23T11:20:34.363Z,69.8
2022-10-23T11:21:34.366Z,69.9
2022-10-23T11:22:34.378Z,69.9
2022-10-23T11:23:34.391Z,69.5
2022-10-23T11:24:34.442Z,69.2
2022-10-23T11:25:34.405Z,69.1
2022-10-23T11:26:34.413Z,69.0
2022-10-23T11:27:34.439Z,69.3
2022-10-23T11:28:34.433Z,69.6
2022-10-23T11:29:34.449Z,69.8
2022-10-23T11:30:34.468Z,69.8
2022-10-23T11:31:34.472Z,69.9
2022-10-23T11:32:34.526Z,70.0
2022-10-23T11:33:34.482Z,70.1
2022-10-23T11:34:34.491Z,70.2
2022-10-23T11:35:34.498Z,70.2
2022-10-23T11:36:34.515Z,70.4
2022-10-23T11:37:34.518Z,70.6
2022-10-23T11:38:34.519Z,70.8
2022-10-23T11:39:34.531Z,70.7
2022-10-23T11:40:34.545Z,70.8
2022-10-23T11:41:34.549Z,70.7
2022-10-23T11:42:34.568Z,70.8
2022-10-23T11:43:34.568Z,70.9
2022-10-23T11:44:34.579Z,70.8
2022-10-23T11:45:34.577Z,70.9
2022-10-23T11:46:34.588Z,70.8
2022-10-23T11:47:40.827Z,70.7
2022-10-23T11:48:34.611Z,70.5
2022-10-23T11:49:34.613Z,70.5
2022-10-23T11:50:34.627Z,70.4
2022-10-23T11:51:34.646Z,70.3
2022-10-23T11:53:09.152Z,70.5
2022-10-23T11:53:34.671Z,70.2
2022-10-23T11:54:34.663Z,70.0
2022-10-23T11:55:34.677Z,69.9
2022-10-23T11:56:34.686Z,70.0
2022-10-23T11:57:34.705Z,69.8
2022-10-23T11:58:34.705Z,69.0
2022-10-23T11:59:34.711Z,68.9
2022-10-23T12:00:34.731Z,68.8
2022-10-23T12:01:35.090Z,68.6
2022-10-23T12:02:34.963Z,68.5
2022-10-23T12:03:34.750Z,68.4
2022-10-23T12:04:34.763Z,68.4
2022-10-23T12:05:34.769Z,68.3
2022-10-23T12:06:34.787Z,68.0
2022-10-23T12:07:34.785Z,67.9
2022-10-23T12:08:34.804Z,68.0
2022-10-23T12:09:34.810Z,68.1
2022-10-23T12:10:34.810Z,68.0
2022-10-23T12:11:34.817Z,68.0
2022-10-23T12:12:34.831Z,68.0
2022-10-23T12:13:34.834Z,68.0
2022-10-23T12:14:34.860Z,68.0
2022-10-23T12:15:34.865Z,67.8
2022-10-23T12:16:34.869Z,67.8
2022-10-23T12:17:34.880Z,67.7
2022-10-23T12:18:34.911Z,67.8
2022-10-23T12:19:34.886Z,67.7
2022-10-23T12:20:34.893Z,67.5
2022-10-23T12:21:34.902Z,67.7
2022-10-23T12:23:34.933Z,67.8
2022-10-23T12:24:34.938Z,67.8
2022-10-23T12:25:34.946Z,67.9
2022-10-23T12:26:34.950Z,67.8
2022-10-23T12:27:34.972Z,68.0
2022-10-23T12:28:34.974Z,68.1
2022-10-23T12:29:34.995Z,68.3
2022-10-23T12:30:35.003Z,68.2
2022-10-23T12:31:35.011Z,67.8
2022-10-23T12:32:35.008Z,67.8
2022-10-23T12:33:35.027Z,67.9
2022-10-23T12:34:35.027Z,68.0
2022-10-23T12:35:35.100Z,68.0
2022-10-23T12:36:35.040Z,68.2
2022-10-23T12:37:35.065Z,68.2
2022-10-23T12:38:36.605Z,68.2
2022-10-23T12:39:35.071Z,68.2
2022-10-23T12:40:35.080Z,67.9
2022-10-23T12:41:35.082Z,68.0
2022-10-23T12:42:35.106Z,68.1
2022-10-23T12:43:35.098Z,68.2
2022-10-23T12:44:35.108Z,68.2
2022-10-23T12:45:35.117Z,68.3
2022-10-23T12:46:35.127Z,68.5
2022-10-23T12:47:35.336Z,68.5
2022-10-23T12:48:35.146Z,68.7
2022-10-23T12:49:35.154Z,68.9
2022-10-23T12:50:35.167Z,69.1
2022-10-23T12:51:35.180Z,69.2
2022-10-23T12:52:35.192Z,69.3
2022-10-23T12:53:35.198Z,69.4
2022-10-23T12:54:35.223Z,69.5
2022-10-23T12:55:36.268Z,69.5
2022-10-23T12:56:35.655Z,69.6
2022-10-23T12:57:35.239Z,69.8
2022-10-23T12:58:35.290Z,70.0
2022-10-23T12:59:35.256Z,70.1
2022-10-23T13:00:35.267Z,69.9
2022-10-23T13:01:38.478Z,69.8
2022-10-23T13:02:35.870Z,69.9
2022-10-23T13:03:35.328Z,69.8
2022-10-23T13:04:35.313Z,69.6
2022-10-23T13:05:35.313Z,69.5
2022-10-23T13:06:35.323Z,69.4
2022-10-23T13:07:35.342Z,69.4
2022-10-23T13:08:35.341Z,69.4
2022-10-23T13:09:35.351Z,69.3
2022-10-23T13:10:35.354Z,69.3
2022-10-23T13:11:35.369Z,69.1
2022-10-23T13:12:35.687Z,68.9
2022-10-23T13:13:35.402Z,68.8
2022-10-23T13:14:44.451Z,68.9
2022-10-23T13:15:35.409Z,69.0
2022-10-23T13:16:35.427Z,69.1
2022-10-23T13:17:35.453Z,69.2
2022-10-23T13:18:35.442Z,69.0
2022-10-23T13:19:35.453Z,69.0
2022-10-23T13:20:35.471Z,69.1
2022-10-23T13:21:35.466Z,69.2
2022-10-23T13:22:35.480Z,69.0
2022-10-23T13:23:35.507Z,69.0
2022-10-23T13:24:35.501Z,69.1
2022-10-23T13:25:35.514Z,69.2
2022-10-23T13:26:35.515Z,69.2
2022-10-23T13:27:35.527Z,69.3
2022-10-23T13:28:35.536Z,69.1
2022-10-23T13:29:35.552Z,69.2
2022-10-23T13:30:35.551Z,69.2
2022-10-23T13:31:35.569Z,69.4
2022-10-23T13:32:35.576Z,69.5
2022-10-23T13:33:35.599Z,69.6
2022-10-23T13:34:35.591Z,69.6
2022-10-23T13:35:35.605Z,69.8
2022-10-23T13:36:35.605Z,69.9
2022-10-23T13:37:35.758Z,70.1
2022-10-23T13:38:35.628Z,70.0
2022-10-23T13:39:35.636Z,70.1
2022-10-23T13:40:35.645Z,70.2
2022-10-23T13:41:35.656Z,70.3
2022-10-23T13:42:35.664Z,70.3
2022-10-23T13:43:35.671Z,70.3
2022-10-23T13:44:35.680Z,70.3
2022-10-23T13:45:35.686Z,70.4